Oak Hall, Virginia
Current Conditions -  °F | °C
As of 9:54 PM on Tuesday 21 Oct 2014 (Local Time) from KWAL Reporting Station
Light Rain Light Rain  
Wind Chill: 60°   Ceiling: 7000
Heat Index: 60°   Visibility: 10mi
Dew Point: 53°   Wind: 13mph
Humidity: 78%   Direction: 340°NNW
Pressure: 29.84"   Gusts: 20mph
Location:  37.93°N, 75.54°W
Report Text: KWAL 220154Z AUTO 34011G17KT 10SM -RA BKN070 OVC090 16/12 A2984 RMK AO2 LTG DSNT SW AND W RAB52 SLP103 P0000 T01560117
Loading
Personal Weather Stations






























Interactive Weather Map
Tropical Storm Tracking
New forecast layout! Learn more

10-Day Weather Forecast

Advertisements
Track Severe Weather on mobile